sensor_id;sensor_type;location;lat;lon;timestamp;temperature;humidity
5007;DHT22;2522;50.972;11.046;2022-09-13T03:32:15;15.00;99.90
5007;DHT22;2522;50.972;11.046;2022-09-13T03:34:46;15.00;99.90
5007;DHT22;2522;50.972;11.046;2022-09-13T03:37:16;15.00;99.90
5007;DHT22;2522;50.972;11.046;2022-09-13T03:39:47;14.90;99.90
5007;DHT22;2522;50.972;11.046;2022-09-13T03:42:17;15.00;99.90
5007;DHT22;2522;50.972;11.046;2022-09-13T03:44:47;14.90;99.90
5007;DHT22;2522;50.972;11.046;2022-09-13T03:47:17;14.90;99.90
5007;DHT22;2522;50.972;11.046;2022-09-13T03:49:44;15.00;99.90
5007;DHT22;2522;50.972;11.046;2022-09-13T03:52:11;15.00;99.90
5007;DHT22;2522;50.972;11.046;2022-09-13T03:54:38;14.90;99.90
5007;DHT22;2522;50.972;11.046;2022-09-13T03:57:09;15.10;99.90
5007;DHT22;2522;50.972;11.046;2022-09-13T03:59:36;15.00;99.90
5007;DHT22;2522;50.972;11.046;2022-09-13T04:02:03;15.00;99.90
5007;DHT22;2522;50.972;11.046;2022-09-13T04:04:31;15.10;99.90
5007;DHT22;2522;50.972;11.046;2022-09-13T04:06:58;15.10;99.90
5007;DHT22;2522;50.972;11.046;2022-09-13T04:09:27;15.20;99.90
5007;DHT22;2522;50.972;11.046;2022-09-13T04:11:54;15.20;99.90
5007;DHT22;2522;50.972;11.046;2022-09-13T04:14:21;15.20;99.90
5007;DHT22;2522;50.972;11.046;2022-09-13T04:16:50;15.20;99.90
5007;DHT22;2522;50.972;11.046;2022-09-13T04:19:17;15.20;99.90
5007;DHT22;2522;50.972;11.046;2022-09-13T04:21:47;15.20;99.90
5007;DHT22;2522;50.972;11.046;2022-09-13T04:24:14;15.20;99.90
5007;DHT22;2522;50.972;11.046;2022-09-13T04:26:41;15.20;99.90
5007;DHT22;2522;50.972;11.046;2022-09-13T04:29:08;15.20;99.90
5007;DHT22;2522;50.972;11.046;2022-09-13T04:31:35;15.20;99.90
5007;DHT22;2522;50.972;11.046;2022-09-13T04:34:02;15.20;99.90
5007;DHT22;2522;50.972;11.046;2022-09-13T04:36:29;15.20;99.90
5007;DHT22;2522;50.972;11.046;2022-09-13T04:38:57;15.20;99.90
5007;DHT22;2522;50.972;11.046;2022-09-13T04:41:25;15.20;99.90
5007;DHT22;2522;50.972;11.046;2022-09-13T04:43:51;15.30;99.90
5007;DHT22;2522;50.972;11.046;2022-09-13T04:46:18;15.40;99.90
5007;DHT22;2522;50.972;11.046;2022-09-13T04:48:47;15.30;99.90
5007;DHT22;2522;50.972;11.046;2022-09-13T04:51:13;15.30;99.90
5007;DHT22;2522;50.972;11.046;2022-09-13T04:53:40;15.40;99.90
5007;DHT22;2522;50.972;11.046;2022-09-13T04:56:08;15.40;99.90
5007;DHT22;2522;50.972;11.046;2022-09-13T04:58:36;15.50;99.90
5007;DHT22;2522;50.972;11.046;2022-09-13T05:01:03;15.50;99.90
5007;DHT22;2522;50.972;11.046;2022-09-13T05:03:30;15.60;99.90
5007;DHT22;2522;50.972;11.046;2022-09-13T05:06:00;15.60;99.90
5007;DHT22;2522;50.972;11.046;2022-09-13T05:08:26;15.70;99.90
5007;DHT22;2522;50.972;11.046;2022-09-13T05:10:53;15.70;99.90
5007;DHT22;2522;50.972;11.046;2022-09-13T05:13:21;15.80;99.90
5007;DHT22;2522;50.972;11.046;2022-09-13T05:15:48;15.80;99.90
5007;DHT22;2522;50.972;11.046;2022-09-13T05:18:14;15.90;99.90
5007;DHT22;2522;50.972;11.046;2022-09-13T05:20:41;15.80;99.90
5007;DHT22;2522;50.972;11.046;2022-09-13T05:23:08;15.90;99.90
5007;DHT22;2522;50.972;11.046;2022-09-13T05:25:34;15.90;99.90
5007;DHT22;2522;50.972;11.046;2022-09-13T05:28:01;16.00;99.90
5007;DHT22;2522;50.972;11.046;2022-09-13T05:30:29;16.00;99.90
5007;DHT22;2522;50.972;11.046;2022-09-13T05:32:56;16.10;99.90
5007;DHT22;2522;50.972;11.046;2022-09-13T05:35:23;16.20;99.90
5007;DHT22;2522;50.972;11.046;2022-09-13T05:37:49;16.10;99.90
5007;DHT22;2522;50.972;11.046;2022-09-13T05:40:16;16.20;99.90
5007;DHT22;2522;50.972;11.046;2022-09-13T05:42:42;16.20;99.90
5007;DHT22;2522;50.972;11.046;2022-09-13T05:45:09;16.30;99.90
5007;DHT22;2522;50.972;11.046;2022-09-13T05:47:37;16.30;99.90
5007;DHT22;2522;50.972;11.046;2022-09-13T05:50:04;16.40;99.90
5007;DHT22;2522;50.972;11.046;2022-09-13T05:52:31;16.40;99.90
5007;DHT22;2522;50.972;11.046;2022-09-13T05:54:58;16.40;99.90
5007;DHT22;2522;50.972;11.046;2022-09-13T05:57:24;16.40;99.90
5007;DHT22;2522;50.972;11.046;2022-09-13T05:59:51;16.50;99.90
5007;DHT22;2522;50.972;11.046;2022-09-13T06:02:18;16.60;99.90
5007;DHT22;2522;50.972;11.046;2022-09-13T06:04:46;16.60;99.90
5007;DHT22;2522;50.972;11.046;2022-09-13T06:07:12;16.60;99.90
5007;DHT22;2522;50.972;11.046;2022-09-13T06:09:39;16.50;99.90
5007;DHT22;2522;50.972;11.046;2022-09-13T06:12:06;16.70;99.90
5007;DHT22;2522;50.972;11.046;2022-09-13T06:14:32;16.70;99.90
5007;DHT22;2522;50.972;11.046;2022-09-13T06:16:59;16.80;99.90
5007;DHT22;2522;50.972;11.046;2022-09-13T06:19:28;16.80;99.90
5007;DHT22;2522;50.972;11.046;2022-09-13T06:21:56;16.80;99.90
5007;DHT22;2522;50.972;11.046;2022-09-13T06:24:22;16.90;99.90
5007;DHT22;2522;50.972;11.046;2022-09-13T06:26:49;16.90;99.90
5007;DHT22;2522;50.972;11.046;2022-09-13T06:29:16;17.00;99.90
5007;DHT22;2522;50.972;11.046;2022-09-13T06:31:42;17.00;99.90
5007;DHT22;2522;50.972;11.046;2022-09-13T06:34:09;17.10;99.90
5007;DHT22;2522;50.972;11.046;2022-09-13T06:36:36;17.20;99.90
5007;DHT22;2522;50.972;11.046;2022-09-13T06:39:04;17.20;99.90
5007;DHT22;2522;50.972;11.046;2022-09-13T06:41:32;17.10;99.90
5007;DHT22;2522;50.972;11.046;2022-09-13T06:43:59;17.10;99.90
5007;DHT22;2522;50.972;11.046;2022-09-13T06:46:28;17.20;99.90
5007;DHT22;2522;50.972;11.046;2022-09-13T06:48:57;17.10;99.90
5007;DHT22;2522;50.972;11.046;2022-09-13T06:51:24;17.20;99.90
5007;DHT22;2522;50.972;11.046;2022-09-13T06:53:51;17.30;99.90
5007;DHT22;2522;50.972;11.046;2022-09-13T06:56:22;17.20;99.90
5007;DHT22;2522;50.972;11.046;2022-09-13T06:58:50;17.30;99.90
5007;DHT22;2522;50.972;11.046;2022-09-13T07:01:17;17.40;99.90
5007;DHT22;2522;50.972;11.046;2022-09-13T07:03:45;17.30;99.90
5007;DHT22;2522;50.972;11.046;2022-09-13T07:06:13;17.30;99.90
5007;DHT22;2522;50.972;11.046;2022-09-13T07:08:40;17.30;99.90
5007;DHT22;2522;50.972;11.046;2022-09-13T07:11:07;17.30;99.90
5007;DHT22;2522;50.972;11.046;2022-09-13T07:13:35;17.40;99.90
5007;DHT22;2522;50.972;11.046;2022-09-13T07:16:03;17.50;99.90
5007;DHT22;2522;50.972;11.046;2022-09-13T07:18:31;17.50;99.90
5007;DHT22;2522;50.972;11.046;2022-09-13T07:20:58;17.50;99.90
5007;DHT22;2522;50.972;11.046;2022-09-13T07:23:26;17.60;99.90
5007;DHT22;2522;50.972;11.046;2022-09-13T07:25:53;17.60;99.90
5007;DHT22;2522;50.972;11.046;2022-09-13T07:28:19;17.70;99.90
5007;DHT22;2522;50.972;11.046;2022-09-13T07:30:47;17.70;99.90
5007;DHT22;2522;50.972;11.046;2022-09-13T07:33:14;17.80;99.90
5007;DHT22;2522;50.972;11.046;2022-09-13T07:35:41;17.80;99.90
5007;DHT22;2522;50.972;11.046;2022-09-13T07:38:07;17.80;99.90
5007;DHT22;2522;50.972;11.046;2022-09-13T07:40:34;17.90;99.90
5007;DHT22;2522;50.972;11.046;2022-09-13T07:43:01;17.90;99.90
5007;DHT22;2522;50.972;11.046;2022-09-13T07:45:28;18.10;99.90
5007;DHT22;2522;50.972;11.046;2022-09-13T07:47:56;18.00;99.90
5007;DHT22;2522;50.972;11.046;2022-09-13T07:50:22;18.10;99.90
5007;DHT22;2522;50.972;11.046;2022-09-13T07:52:49;18.20;99.90
5007;DHT22;2522;50.972;11.046;2022-09-13T07:55:16;18.30;99.90
5007;DHT22;2522;50.972;11.046;2022-09-13T07:57:42;18.50;99.90
5007;DHT22;2522;50.972;11.046;2022-09-13T08:00:09;18.50;99.90
5007;DHT22;2522;50.972;11.046;2022-09-13T08:02:36;18.60;99.90
5007;DHT22;2522;50.972;11.046;2022-09-13T08:05:05;18.70;99.90
5007;DHT22;2522;50.972;11.046;2022-09-13T08:07:31;18.90;99.90
5007;DHT22;2522;50.972;11.046;2022-09-13T08:09:58;19.00;99.90
5007;DHT22;2522;50.972;11.046;2022-09-13T08:12:25;19.20;99.90
5007;DHT22;2522;50.972;11.046;2022-09-13T08:14:51;19.20;99.90
5007;DHT22;2522;50.972;11.046;2022-09-13T08:17:18;19.40;99.90
5007;DHT22;2522;50.972;11.046;2022-09-13T08:19:45;19.50;99.90
5007;DHT22;2522;50.972;11.046;2022-09-13T08:22:13;19.60;99.90
5007;DHT22;2522;50.972;11.046;2022-09-13T08:24:39;19.90;99.90
5007;DHT22;2522;50.972;11.046;2022-09-13T08:27:06;20.10;99.90
5007;DHT22;2522;50.972;11.046;2022-09-13T08:29:33;20.30;99.90
5007;DHT22;2522;50.972;11.046;2022-09-13T08:31:59;20.50;99.90
5007;DHT22;2522;50.972;11.046;2022-09-13T08:34:26;20.70;99.90
5007;DHT22;2522;50.972;11.046;2022-09-13T08:36:53;20.90;99.90
5007;DHT22;2522;50.972;11.046;2022-09-13T08:39:21;21.10;99.90
5007;DHT22;2522;50.972;11.046;2022-09-13T08:41:57;21.20;99.90
5007;DHT22;2522;50.972;11.046;2022-09-13T08:44:26;21.20;99.90
5007;DHT22;2522;50.972;11.046;2022-09-13T08:46:56;21.20;99.90
5007;DHT22;2522;50.972;11.046;2022-09-13T08:49:25;21.20;99.90
5007;DHT22;2522;50.972;11.046;2022-09-13T08:51:53;21.10;99.90
5007;DHT22;2522;50.972;11.046;2022-09-13T08:54:23;21.10;99.90
5007;DHT22;2522;50.972;11.046;2022-09-13T08:56:50;21.10;99.90
5007;DHT22;2522;50.972;11.046;2022-09-13T08:59:27;21.10;99.90
5007;DHT22;2522;50.972;11.046;2022-09-13T09:01:57;21.10;99.90
5007;DHT22;2522;50.972;11.046;2022-09-13T09:04:30;21.10;99.90
5007;DHT22;2522;50.972;11.046;2022-09-13T09:07:01;21.10;99.90
5007;DHT22;2522;50.972;11.046;2022-09-13T09:09:30;21.10;99.90
5007;DHT22;2522;50.972;11.046;2022-09-13T09:11:58;21.10;99.90
5007;DHT22;2522;50.972;11.046;2022-09-13T09:14:28;21.10;99.90
5007;DHT22;2522;50.972;11.046;2022-09-13T09:16:56;21.10;99.90
5007;DHT22;2522;50.972;11.046;2022-09-13T09:19:25;21.10;99.90
5007;DHT22;2522;50.972;11.046;2022-09-13T09:21:54;21.20;99.90
5007;DHT22;2522;50.972;11.046;2022-09-13T09:24:22;21.20;99.90
5007;DHT22;2522;50.972;11.046;2022-09-13T09:26:51;21.10;99.90
5007;DHT22;2522;50.972;11.046;2022-09-13T09:29:19;21.10;99.90
5007;DHT22;2522;50.972;11.046;2022-09-13T09:31:49;21.10;99.90
5007;DHT22;2522;50.972;11.046;2022-09-13T09:34:19;21.20;99.90
5007;DHT22;2522;50.972;11.046;2022-09-13T09:36:50;21.20;99.90
5007;DHT22;2522;50.972;11.046;2022-09-13T09:39:20;21.20;99.90
5007;DHT22;2522;50.972;11.046;2022-09-13T09:41:47;21.30;99.90
5007;DHT22;2522;50.972;11.046;2022-09-13T09:44:17;21.30;99.90
5007;DHT22;2522;50.972;11.046;2022-09-13T09:46:45;21.30;99.90
5007;DHT22;2522;50.972;11.046;2022-09-13T09:49:15;21.40;99.90
5007;DHT22;2522;50.972;11.046;2022-09-13T09:52:00;21.50;99.90
5007;DHT22;2522;50.972;11.046;2022-09-13T09:54:32;21.50;99.90
5007;DHT22;2522;50.972;11.046;2022-09-13T09:56:59;21.60;99.90
5007;DHT22;2522;50.972;11.046;2022-09-13T09:59:28;21.60;99.90
5007;DHT22;2522;50.972;11.046;2022-09-13T10:01:57;21.60;99.90
5007;DHT22;2522;50.972;11.046;2022-09-13T10:04:24;21.60;99.90
5007;DHT22;2522;50.972;11.046;2022-09-13T10:07:06;21.70;99.90
5007;DHT22;2522;50.972;11.046;2022-09-13T10:09:34;21.70;99.90
5007;DHT22;2522;50.972;11.046;2022-09-13T10:12:02;21.70;99.90
5007;DHT22;2522;50.972;11.046;2022-09-13T10:14:34;21.70;99.90
5007;DHT22;2522;50.972;11.046;2022-09-13T10:17:05;21.70;99.90
5007;DHT22;2522;50.972;11.046;2022-09-13T10:19:39;21.70;99.90
5007;DHT22;2522;50.972;11.046;2022-09-13T10:22:09;21.70;99.90
5007;DHT22;2522;50.972;11.046;2022-09-13T10:24:36;21.80;99.90
5007;DHT22;2522;50.972;11.046;2022-09-13T10:27:03;21.90;99.90
5007;DHT22;2522;50.972;11.046;2022-09-13T10:29:31;21.90;99.90
5007;DHT22;2522;50.972;11.046;2022-09-13T10:31:58;22.00;99.90
5007;DHT22;2522;50.972;11.046;2022-09-13T10:34:33;22.00;99.90
5007;DHT22;2522;50.972;11.046;2022-09-13T10:37:01;22.10;99.90
5007;DHT22;2522;50.972;11.046;2022-09-13T10:39:28;22.20;99.90
5007;DHT22;2522;50.972;11.046;2022-09-13T10:41:58;22.30;99.90
5007;DHT22;2522;50.972;11.046;2022-09-13T10:44:29;22.40;99.90
5007;DHT22;2522;50.972;11.046;2022-09-13T10:46:59;22.40;99.90
5007;DHT22;2522;50.972;11.046;2022-09-13T10:49:37;22.50;99.90
5007;DHT22;2522;50.972;11.046;2022-09-13T10:54:49;22.80;99.90
5007;DHT22;2522;50.972;11.046;2022-09-13T10:57:32;23.00;99.90
5007;DHT22;2522;50.972;11.046;2022-09-13T10:59:59;23.10;99.90
5007;DHT22;2522;50.972;11.046;2022-09-13T11:02:35;23.30;99.90
5007;DHT22;2522;50.972;11.046;2022-09-13T11:05:15;23.40;99.90
5007;DHT22;2522;50.972;11.046;2022-09-13T11:10:30;23.50;99.90
5007;DHT22;2522;50.972;11.046;2022-09-13T11:13:00;23.70;99.90
5007;DHT22;2522;50.972;11.046;2022-09-13T11:15:32;23.80;99.90
5007;DHT22;2522;50.972;11.046;2022-09-13T11:18:08;23.80;99.90
5007;DHT22;2522;50.972;11.046;2022-09-13T11:20:42;23.90;99.90
5007;DHT22;2522;50.972;11.046;2022-09-13T11:23:24;24.00;99.90
5007;DHT22;2522;50.972;11.046;2022-09-13T11:25:56;24.10;99.90
5007;DHT22;2522;50.972;11.046;2022-09-13T11:28:27;24.00;99.90
5007;DHT22;2522;50.972;11.046;2022-09-13T11:31:01;24.20;99.90
5007;DHT22;2522;50.972;11.046;2022-09-13T11:33:34;24.30;99.90
5007;DHT22;2522;50.972;11.046;2022-09-13T11:36:10;24.40;99.90
5007;DHT22;2522;50.972;11.046;2022-09-13T11:38:41;24.40;99.90
5007;DHT22;2522;50.972;11.046;2022-09-13T11:41:12;24.40;99.90
5007;DHT22;2522;50.972;11.046;2022-09-13T11:43:46;24.40;99.90
5007;DHT22;2522;50.972;11.046;2022-09-13T11:46:19;24.40;99.90
5007;DHT22;2522;50.972;11.046;2022-09-13T11:48:53;24.40;99.90
5007;DHT22;2522;50.972;11.046;2022-09-13T11:51:25;24.40;99.90
5007;DHT22;2522;50.972;11.046;2022-09-13T11:54:00;24.50;99.90
5007;DHT22;2522;50.972;11.046;2022-09-13T11:56:31;24.50;99.90
5007;DHT22;2522;50.972;11.046;2022-09-13T11:58:59;24.60;99.90
5007;DHT22;2522;50.972;11.046;2022-09-13T12:01:31;24.60;99.90
5007;DHT22;2522;50.972;11.046;2022-09-13T12:04:01;24.70;99.90
5007;DHT22;2522;50.972;11.046;2022-09-13T12:06:30;24.70;99.90
5007;DHT22;2522;50.972;11.046;2022-09-13T12:09:04;24.60;99.90
5007;DHT22;2522;50.972;11.046;2022-09-13T12:11:33;24.50;99.90
5007;DHT22;2522;50.972;11.046;2022-09-13T12:14:01;24.50;99.90
5007;DHT22;2522;50.972;11.046;2022-09-13T12:16:29;24.60;98.90
5007;DHT22;2522;50.972;11.046;2022-09-13T12:18:58;24.70;98.40
5007;DHT22;2522;50.972;11.046;2022-09-13T12:21:28;24.70;98.50
5007;DHT22;2522;50.972;11.046;2022-09-13T12:24:00;24.70;97.50
5007;DHT22;2522;50.972;11.046;2022-09-13T12:26:29;24.80;97.30
5007;DHT22;2522;50.972;11.046;2022-09-13T12:29:00;24.80;96.30
5007;DHT22;2522;50.972;11.046;2022-09-13T12:31:29;24.90;96.00
5007;DHT22;2522;50.972;11.046;2022-09-13T12:33:56;24.90;95.80
5007;DHT22;2522;50.972;11.046;2022-09-13T12:36:47;24.90;96.10
5007;DHT22;2522;50.972;11.046;2022-09-13T12:39:22;24.90;95.00
5007;DHT22;2522;50.972;11.046;2022-09-13T12:41:54;24.90;94.80
5007;DHT22;2522;50.972;11.046;2022-09-13T12:47:39;24.90;95.50
5007;DHT22;2522;50.972;11.046;2022-09-13T12:50:14;25.00;95.80
5007;DHT22;2522;50.972;11.046;2022-09-13T12:52:47;25.00;95.30
5007;DHT22;2522;50.972;11.046;2022-09-13T12:55:30;25.00;94.40
5007;DHT22;2522;50.972;11.046;2022-09-13T12:58:04;25.10;94.90
5007;DHT22;2522;50.972;11.046;2022-09-13T13:00:36;25.10;94.80
5007;DHT22;2522;50.972;11.046;2022-09-13T13:03:04;25.20;94.40
5007;DHT22;2522;50.972;11.046;2022-09-13T13:05:37;25.20;94.20
5007;DHT22;2522;50.972;11.046;2022-09-13T13:08:14;25.30;93.80
5007;DHT22;2522;50.972;11.046;2022-09-13T13:10:43;25.30;93.60
5007;DHT22;2522;50.972;11.046;2022-09-13T13:13:11;25.30;93.30
5007;DHT22;2522;50.972;11.046;2022-09-13T13:15:56;25.30;93.50
5007;DHT22;2522;50.972;11.046;2022-09-13T13:18:23;25.30;93.90
5007;DHT22;2522;50.972;11.046;2022-09-13T13:21:21;25.40;94.10
5007;DHT22;2522;50.972;11.046;2022-09-13T13:23:49;25.50;94.00
5007;DHT22;2522;50.972;11.046;2022-09-13T13:26:42;25.60;94.20
5007;DHT22;2522;50.972;11.046;2022-09-13T13:29:13;25.70;93.80
5007;DHT22;2522;50.972;11.046;2022-09-13T13:31:44;25.70;93.50
5007;DHT22;2522;50.972;11.046;2022-09-13T13:34:25;25.70;93.50
5007;DHT22;2522;50.972;11.046;2022-09-13T13:36:54;25.80;93.50
5007;DHT22;2522;50.972;11.046;2022-09-13T13:39:34;25.90;93.70
5007;DHT22;2522;50.972;11.046;2022-09-13T13:42:02;26.00;93.90
5007;DHT22;2522;50.972;11.046;2022-09-13T13:47:51;26.20;93.30
5007;DHT22;2522;50.972;11.046;2022-09-13T13:50:19;26.20;92.70
5007;DHT22;2522;50.972;11.046;2022-09-13T13:52:50;26.20;92.40
5007;DHT22;2522;50.972;11.046;2022-09-13T13:55:38;26.30;92.60
5007;DHT22;2522;50.972;11.046;2022-09-13T13:58:09;26.30;92.80
5007;DHT22;2522;50.972;11.046;2022-09-13T14:00:43;26.30;92.80
5007;DHT22;2522;50.972;11.046;2022-09-13T14:03:13;26.20;92.70
5007;DHT22;2522;50.972;11.046;2022-09-13T14:05:45;26.20;92.60
5007;DHT22;2522;50.972;11.046;2022-09-13T14:08:21;26.20;92.50
5007;DHT22;2522;50.972;11.046;2022-09-13T14:10:54;26.10;92.30
5007;DHT22;2522;50.972;11.046;2022-09-13T14:13:36;26.00;92.60
5007;DHT22;2522;50.972;11.046;2022-09-13T14:16:07;26.00;92.80
5007;DHT22;2522;50.972;11.046;2022-09-13T14:18:47;26.00;92.90
5007;DHT22;2522;50.972;11.046;2022-09-13T14:21:17;26.10;93.20
5007;DHT22;2522;50.972;11.046;2022-09-13T14:23:44;26.20;93.60
5007;DHT22;2522;50.972;11.046;2022-09-13T14:26:12;26.20;93.50
5007;DHT22;2522;50.972;11.046;2022-09-13T14:28:39;26.30;93.60
5007;DHT22;2522;50.972;11.046;2022-09-13T14:31:06;26.30;94.20
5007;DHT22;2522;50.972;11.046;2022-09-13T14:33:33;26.40;94.00
5007;DHT22;2522;50.972;11.046;2022-09-13T14:36:02;26.40;94.20
5007;DHT22;2522;50.972;11.046;2022-09-13T14:38:30;26.40;94.00
5007;DHT22;2522;50.972;11.046;2022-09-13T14:41:01;26.40;94.20
5007;DHT22;2522;50.972;11.046;2022-09-13T14:43:29;26.40;94.30
5007;DHT22;2522;50.972;11.046;2022-09-13T14:45:59;26.40;94.30
5007;DHT22;2522;50.972;11.046;2022-09-13T14:48:29;26.40;94.30
5007;DHT22;2522;50.972;11.046;2022-09-13T14:50:58;26.40;93.60
5007;DHT22;2522;50.972;11.046;2022-09-13T14:53:26;26.30;93.70
5007;DHT22;2522;50.972;11.046;2022-09-13T14:55:55;26.30;93.80
5007;DHT22;2522;50.972;11.046;2022-09-13T14:58:23;26.30;93.80
5007;DHT22;2522;50.972;11.046;2022-09-13T15:00:55;26.30;93.40
5007;DHT22;2522;50.972;11.046;2022-09-13T15:03:23;26.30;93.60
5007;DHT22;2522;50.972;11.046;2022-09-13T15:05:51;26.30;93.80
5007;DHT22;2522;50.972;11.046;2022-09-13T15:08:24;26.30;93.70
5007;DHT22;2522;50.972;11.046;2022-09-13T15:10:51;26.20;93.40
5007;DHT22;2522;50.972;11.046;2022-09-13T15:13:18;26.20;93.60
5007;DHT22;2522;50.972;11.046;2022-09-13T15:15:45;26.10;93.80
5007;DHT22;2522;50.972;11.046;2022-09-13T15:18:23;26.00;93.90
5007;DHT22;2522;50.972;11.046;2022-09-13T15:20:50;26.00;94.00
5007;DHT22;2522;50.972;11.046;2022-09-13T15:23:19;26.00;94.00
5007;DHT22;2522;50.972;11.046;2022-09-13T15:25:50;25.90;93.90
5007;DHT22;2522;50.972;11.046;2022-09-13T15:28:22;25.90;94.00
5007;DHT22;2522;50.972;11.046;2022-09-13T15:30:49;25.80;94.10
5007;DHT22;2522;50.972;11.046;2022-09-13T15:33:18;25.70;94.10
5007;DHT22;2522;50.972;11.046;2022-09-13T15:35:48;25.70;94.30
5007;DHT22;2522;50.972;11.046;2022-09-13T15:38:18;25.60;94.30
5007;DHT22;2522;50.972;11.046;2022-09-13T15:40:47;25.60;94.20
5007;DHT22;2522;50.972;11.046;2022-09-13T15:43:22;25.60;93.90
5007;DHT22;2522;50.972;11.046;2022-09-13T15:45:49;25.60;93.80
5007;DHT22;2522;50.972;11.046;2022-09-13T15:48:16;25.60;93.70
5007;DHT22;2522;50.972;11.046;2022-09-13T15:50:48;25.60;93.50
5007;DHT22;2522;50.972;11.046;2022-09-13T15:53:28;25.60;93.40
5007;DHT22;2522;50.972;11.046;2022-09-13T15:55:55;25.50;93.30
5007;DHT22;2522;50.972;11.046;2022-09-13T15:58:22;25.50;93.20
5007;DHT22;2522;50.972;11.046;2022-09-13T16:00:49;25.50;93.20
5007;DHT22;2522;50.972;11.046;2022-09-13T16:03:15;25.50;93.40
5007;DHT22;2522;50.972;11.046;2022-09-13T16:05:42;25.50;93.50
5007;DHT22;2522;50.972;11.046;2022-09-13T16:08:10;25.50;93.40
5007;DHT22;2522;50.972;11.046;2022-09-13T16:10:37;25.60;93.50
5007;DHT22;2522;50.972;11.046;2022-09-13T16:13:03;25.50;93.60
5007;DHT22;2522;50.972;11.046;2022-09-13T16:15:30;25.50;93.60
5007;DHT22;2522;50.972;11.046;2022-09-13T16:17:57;25.50;93.60
5007;DHT22;2522;50.972;11.046;2022-09-13T16:20:23;25.50;93.70
5007;DHT22;2522;50.972;11.046;2022-09-13T16:22:52;25.40;93.80
5007;DHT22;2522;50.972;11.046;2022-09-13T16:25:20;25.40;93.70
5007;DHT22;2522;50.972;11.046;2022-09-13T16:27:47;25.40;93.90
5007;DHT22;2522;50.972;11.046;2022-09-13T16:30:14;25.30;94.00
5007;DHT22;2522;50.972;11.046;2022-09-13T16:32:41;25.30;94.10
5007;DHT22;2522;50.972;11.046;2022-09-13T16:35:08;25.30;94.20
5007;DHT22;2522;50.972;11.046;2022-09-13T16:37:35;25.30;94.30
5007;DHT22;2522;50.972;11.046;2022-09-13T16:40:02;25.30;94.40
5007;DHT22;2522;50.972;11.046;2022-09-13T16:42:31;25.30;94.50
5007;DHT22;2522;50.972;11.046;2022-09-13T16:44:59;25.20;94.60
5007;DHT22;2522;50.972;11.046;2022-09-13T16:47:26;25.20;94.80
5007;DHT22;2522;50.972;11.046;2022-09-13T16:49:52;25.10;94.90
5007;DHT22;2522;50.972;11.046;2022-09-13T16:52:19;25.00;95.00
5007;DHT22;2522;50.972;11.046;2022-09-13T16:54:46;24.90;95.20
5007;DHT22;2522;50.972;11.046;2022-09-13T16:57:13;24.90;95.50
5007;DHT22;2522;50.972;11.046;2022-09-13T16:59:41;24.70;95.70
5007;DHT22;2522;50.972;11.046;2022-09-13T17:02:09;24.70;96.10
5007;DHT22;2522;50.972;11.046;2022-09-13T17:04:36;24.60;96.40
5007;DHT22;2522;50.972;11.046;2022-09-13T17:07:03;24.40;96.70
5007;DHT22;2522;50.972;11.046;2022-09-13T17:09:31;24.40;96.90
5007;DHT22;2522;50.972;11.046;2022-09-13T17:11:58;24.30;97.20
5007;DHT22;2522;50.972;11.046;2022-09-13T17:14:25;24.20;97.40
5007;DHT22;2522;50.972;11.046;2022-09-13T17:16:54;24.20;97.60
5007;DHT22;2522;50.972;11.046;2022-09-13T17:19:22;24.10;97.80
5007;DHT22;2522;50.972;11.046;2022-09-13T17:21:50;24.00;98.00
5007;DHT22;2522;50.972;11.046;2022-09-13T17:24:17;23.90;98.20
5007;DHT22;2522;50.972;11.046;2022-09-13T17:26:43;23.90;98.40
5007;DHT22;2522;50.972;11.046;2022-09-13T17:29:11;23.80;98.50
5007;DHT22;2522;50.972;11.046;2022-09-13T17:31:38;23.70;98.70
5007;DHT22;2522;50.972;11.046;2022-09-13T17:34:06;23.80;99.00
5007;DHT22;2522;50.972;11.046;2022-09-13T17:36:33;23.60;99.10
5007;DHT22;2522;50.972;11.046;2022-09-13T17:38:59;23.50;99.30
5007;DHT22;2522;50.972;11.046;2022-09-13T17:41:26;23.40;99.40
5007;DHT22;2522;50.972;11.046;2022-09-13T17:43:53;23.30;99.60
5007;DHT22;2522;50.972;11.046;2022-09-13T17:46:20;23.30;99.90
5007;DHT22;2522;50.972;11.046;2022-09-13T17:48:47;23.10;99.90
5007;DHT22;2522;50.972;11.046;2022-09-13T17:51:16;23.10;99.90
5007;DHT22;2522;50.972;11.046;2022-09-13T17:53:44;23.00;99.90
5007;DHT22;2522;50.972;11.046;2022-09-13T17:56:14;22.90;99.90
5007;DHT22;2522;50.972;11.046;2022-09-13T17:58:41;22.80;99.90
5007;DHT22;2522;50.972;11.046;2022-09-13T18:01:08;22.80;99.90
5007;DHT22;2522;50.972;11.046;2022-09-13T18:03:35;22.70;99.90
5007;DHT22;2522;50.972;11.046;2022-09-13T18:06:03;22.60;99.90
5007;DHT22;2522;50.972;11.046;2022-09-13T18:08:31;22.50;99.90
5007;DHT22;2522;50.972;11.046;2022-09-13T18:11:00;22.50;99.90
5007;DHT22;2522;50.972;11.046;2022-09-13T18:13:28;22.40;99.90
5007;DHT22;2522;50.972;11.046;2022-09-13T18:15:58;22.30;99.90
5007;DHT22;2522;50.972;11.046;2022-09-13T18:18:25;22.30;99.90
5007;DHT22;2522;50.972;11.046;2022-09-13T18:20:52;22.20;99.90
5007;DHT22;2522;50.972;11.046;2022-09-13T18:23:18;22.20;99.90
5007;DHT22;2522;50.972;11.046;2022-09-13T18:25:55;22.10;99.90
5007;DHT22;2522;50.972;11.046;2022-09-13T18:28:22;22.00;99.90
5007;DHT22;2522;50.972;11.046;2022-09-13T18:30:52;22.00;99.90
5007;DHT22;2522;50.972;11.046;2022-09-13T18:33:19;21.90;99.90
5007;DHT22;2522;50.972;11.046;2022-09-13T18:36:00;21.90;99.90
5007;DHT22;2522;50.972;11.046;2022-09-13T18:38:27;21.80;99.90
5007;DHT22;2522;50.972;11.046;2022-09-13T18:41:00;21.80;99.90
5007;DHT22;2522;50.972;11.046;2022-09-13T18:43:27;21.70;99.90
5007;DHT22;2522;50.972;11.046;2022-09-13T18:45:54;21.70;99.90
5007;DHT22;2522;50.972;11.046;2022-09-13T18:48:21;21.60;99.90
5007;DHT22;2522;50.972;11.046;2022-09-13T18:50:48;21.60;99.90
5007;DHT22;2522;50.972;11.046;2022-09-13T18:53:15;21.60;99.90
5007;DHT22;2522;50.972;11.046;2022-09-13T18:55:42;21.50;99.90
5007;DHT22;2522;50.972;11.046;2022-09-13T18:58:10;21.50;99.90
5007;DHT22;2522;50.972;11.046;2022-09-13T19:00:36;21.50;99.90
5007;DHT22;2522;50.972;11.046;2022-09-13T19:03:03;21.40;99.90
5007;DHT22;2522;50.972;11.046;2022-09-13T19:05:30;21.40;99.90
5007;DHT22;2522;50.972;11.046;2022-09-13T19:07:57;21.30;99.90
5007;DHT22;2522;50.972;11.046;2022-09-13T19:10:24;21.30;99.90
5007;DHT22;2522;50.972;11.046;2022-09-13T19:12:51;21.30;99.90
5007;DHT22;2522;50.972;11.046;2022-09-13T19:15:19;21.20;99.90
5007;DHT22;2522;50.972;11.046;2022-09-13T19:17:46;21.20;99.90
5007;DHT22;2522;50.972;11.046;2022-09-13T19:20:16;21.20;99.90
5007;DHT22;2522;50.972;11.046;2022-09-13T19:22:43;21.20;99.90
5007;DHT22;2522;50.972;11.046;2022-09-13T19:25:10;21.10;99.90
5007;DHT22;2522;50.972;11.046;2022-09-13T19:27:37;21.10;99.90
5007;DHT22;2522;50.972;11.046;2022-09-13T19:30:04;21.10;99.90
5007;DHT22;2522;50.972;11.046;2022-09-13T19:32:33;21.10;99.90
5007;DHT22;2522;50.972;11.046;2022-09-13T19:34:59;21.10;99.90
5007;DHT22;2522;50.972;11.046;2022-09-13T19:37:26;21.00;99.90
5007;DHT22;2522;50.972;11.046;2022-09-13T19:39:53;21.00;99.90